Time;durP1;ratioP1;P1;durP2;ratioP2;P2;SDS_P1;SDS_P2;PMS_P1;PMS_P2;Temp;Humidity;BMP_temperature;BMP_pressure;BME280_temperature;BME280_humidity;BME280_pressure;Samples;Min_cycle;Max_cycle;Signal;HPM_P1;HPM_P2
2023/06/08 00:02:19;;;;;;;7.23;4.07;;;;;;;;;;5114979;28;20413;-87
2023/06/08 00:04:45;;;;;;;6.57;4.17;;;;;;;;;;5114979;28;20403;-89
2023/06/08 00:07:16;;;;;;;10.20;4.67;;;;;;;;;;5115249;28;20810;-90
2023/06/08 00:09:42;;;;;;;8.90;4.87;;;;;;;;;;5115058;28;20409;-89
2023/06/08 00:12:08;;;;;;;11.67;5.13;;;;;;;;;;5114649;28;20399;-90
2023/06/08 00:14:35;;;;;;;7.43;4.73;;;;;;;;;;5114993;28;20446;-90
2023/06/08 00:17:03;;;;;;;8.37;4.90;;;;;;;;;;5114206;28;20513;-87
2023/06/08 00:19:33;;;;;;;8.43;4.57;;;;;;;;;;5115134;28;20404;-89
2023/06/08 00:21:59;;;;;;;9.57;4.80;;;;;;;;;;5095849;28;20915;-90
2023/06/08 00:24:25;;;;;;;8.97;4.80;;;;;;;;;;5115102;28;20489;-90
2023/06/08 00:26:52;;;;;;;8.27;4.20;;;;;;;;;;5114714;28;20174;-89
2023/06/08 00:29:17;;;;;;;10.50;4.87;;;;;;;;;;5114944;28;20410;-91
2023/06/08 00:31:43;;;;;;;7.33;4.30;;;;;;;;;;5114982;28;20430;-84
2023/06/08 00:34:09;;;;;;;10.87;5.17;;;;;;;;;;5114932;28;20893;-88
2023/06/08 00:36:37;;;;;;;9.93;4.90;;;;;;;;;;5114854;28;20469;-78
2023/06/08 00:39:03;;;;;;;8.13;4.63;;;;;;;;;;5114733;28;20257;-88
2023/06/08 00:41:29;;;;;;;11.73;5.73;;;;;;;;;;5114222;28;20417;-80
2023/06/08 00:43:58;;;;;;;9.53;5.60;;;;;;;;;;5114522;28;20404;-80
2023/06/08 00:46:26;;;;;;;9.00;5.00;;;;;;;;;;5114609;28;20403;-89
2023/06/08 00:48:52;;;;;;;9.67;3.80;;;;;;;;;;5114477;28;20878;-78
2023/06/08 00:51:19;;;;;;;9.00;4.30;;;;;;;;;;5114473;28;20460;-84
2023/06/08 00:53:46;;;;;;;7.23;3.70;;;;;;;;;;5114540;28;20436;-81
2023/06/08 00:56:16;;;;;;;9.07;5.00;;;;;;;;;;5113841;28;20554;-87
2023/06/08 00:58:47;;;;;;;8.93;4.87;;;;;;;;;;5114461;28;20495;-87
2023/06/08 01:01:17;;;;;;;8.60;4.87;;;;;;;;;;5114234;28;20406;-81
2023/06/08 01:03:43;;;;;;;13.00;5.50;;;;;;;;;;5114155;28;20394;-87
2023/06/08 01:06:12;;;;;;;8.50;5.10;;;;;;;;;;5114342;28;20841;-88
2023/06/08 01:08:54;;;;;;;10.20;5.47;;;;;;;;;;5114142;28;20404;-81
2023/06/08 01:11:28;;;;;;;10.90;5.40;;;;;;;;;;5113629;28;20517;-88
2023/06/08 01:14:00;;;;;;;8.60;4.83;;;;;;;;;;5092409;28;20508;-80
2023/06/08 01:16:31;;;;;;;7.93;4.77;;;;;;;;;;5093404;28;20501;-78
2023/06/08 01:18:59;;;;;;;11.23;5.30;;;;;;;;;;5092366;28;20828;-83
2023/06/08 01:21:41;;;;;;;6.73;4.50;;;;;;;;;;5093620;28;20495;-87
2023/06/08 01:24:11;;;;;;;7.97;4.57;;;;;;;;;;5093434;28;20921;-86
2023/06/08 01:26:41;;;;;;;7.63;4.73;;;;;;;;;;5093323;28;20755;-80
2023/06/08 01:29:08;;;;;;;10.27;5.50;;;;;;;;;;5093110;28;20449;-78
2023/06/08 01:31:34;;;;;;;9.37;5.03;;;;;;;;;;5093445;28;20911;-79
2023/06/08 01:34:00;;;;;;;7.00;4.23;;;;;;;;;;5093316;28;20413;-83
2023/06/08 01:36:26;;;;;;;11.33;5.10;;;;;;;;;;5093273;28;20465;-82
2023/06/08 01:38:56;;;;;;;9.40;4.40;;;;;;;;;;5093409;28;20418;-79
2023/06/08 01:41:28;;;;;;;12.50;4.80;;;;;;;;;;5092767;28;20417;-84
2023/06/08 01:43:56;;;;;;;9.30;5.10;;;;;;;;;;5093042;28;20412;-79
2023/06/08 01:46:22;;;;;;;9.80;4.50;;;;;;;;;;5093100;28;20413;-80
2023/06/08 01:48:49;;;;;;;9.20;5.40;;;;;;;;;;5093066;28;20770;-86
2023/06/08 01:51:16;;;;;;;12.10;5.20;;;;;;;;;;5093095;28;20480;-79
2023/06/08 01:53:42;;;;;;;9.03;5.33;;;;;;;;;;5093080;28;20460;-80
2023/06/08 01:56:08;;;;;;;7.10;4.60;;;;;;;;;;5091323;28;20544;-79
2023/06/08 01:58:34;;;;;;;11.20;5.57;;;;;;;;;;5093113;28;20412;-83
2023/06/08 02:01:00;;;;;;;16.23;4.93;;;;;;;;;;5093018;28;20405;-79
2023/06/08 02:03:26;;;;;;;10.63;5.17;;;;;;;;;;5093007;28;20546;-77
2023/06/08 02:05:52;;;;;;;10.40;5.13;;;;;;;;;;5092878;28;20168;-83
2023/06/08 02:08:18;;;;;;;16.73;5.27;;;;;;;;;;5092936;28;20199;-79
2023/06/08 02:10:44;;;;;;;9.23;5.20;;;;;;;;;;5092613;28;20252;-79
2023/06/08 02:13:10;;;;;;;7.33;5.53;;;;;;;;;;5096393;28;20467;-87
2023/06/08 02:15:35;;;;;;;15.40;6.57;;;;;;;;;;5094962;28;20469;-79
2023/06/08 02:18:01;;;;;;;13.63;5.77;;;;;;;;;;5113113;28;20403;-82
2023/06/08 02:20:30;;;;;;;11.83;5.40;;;;;;;;;;5113155;28;20182;-80
2023/06/08 02:22:56;;;;;;;10.10;6.10;;;;;;;;;;5113059;28;20408;-80
2023/06/08 02:25:22;;;;;;;8.90;5.23;;;;;;;;;;5112751;28;20422;-79
2023/06/08 02:27:48;;;;;;;11.70;6.40;;;;;;;;;;5113127;28;20228;-86
2023/06/08 02:30:15;;;;;;;11.33;5.87;;;;;;;;;;5113102;28;20175;-81
2023/06/08 02:32:45;;;;;;;10.43;5.30;;;;;;;;;;5094767;28;20420;-80
2023/06/08 02:35:11;;;;;;;13.93;5.57;;;;;;;;;;5112803;28;20469;-80
2023/06/08 02:37:37;;;;;;;9.87;6.00;;;;;;;;;;5113039;28;20485;-79
2023/06/08 02:40:04;;;;;;;7.43;5.43;;;;;;;;;;5112840;28;20823;-79
2023/06/08 02:42:30;;;;;;;12.27;8.00;;;;;;;;;;5116934;28;20405;-83
2023/06/08 02:44:56;;;;;;;14.80;6.10;;;;;;;;;;5116889;28;20409;-79
2023/06/08 02:47:22;;;;;;;12.00;5.33;;;;;;;;;;5098570;28;20467;-79
2023/06/08 02:49:48;;;;;;;7.87;5.37;;;;;;;;;;5116700;28;20934;-79
2023/06/08 02:52:14;;;;;;;10.53;6.40;;;;;;;;;;5098358;28;20913;-79
2023/06/08 02:54:40;;;;;;;10.13;5.93;;;;;;;;;;5116249;28;20187;-87
2023/06/08 02:57:06;;;;;;;12.90;6.77;;;;;;;;;;5098425;28;20429;-78
2023/06/08 02:59:32;;;;;;;9.50;6.33;;;;;;;;;;5116734;28;20414;-81
2023/06/08 03:01:58;;;;;;;14.23;6.80;;;;;;;;;;5098290;28;20935;-82
2023/06/08 03:04:25;;;;;;;16.17;7.07;;;;;;;;;;5098220;28;20407;-88
2023/06/08 03:06:54;;;;;;;12.10;6.60;;;;;;;;;;5116525;28;20413;-83
2023/06/08 03:09:20;;;;;;;15.20;6.30;;;;;;;;;;5116101;28;20437;-78
2023/06/08 03:11:47;;;;;;;9.13;5.80;;;;;;;;;;5116417;28;20783;-78
2023/06/08 03:14:13;;;;;;;12.60;6.73;;;;;;;;;;5116225;28;20453;-88
2023/06/08 03:16:41;;;;;;;12.90;6.20;;;;;;;;;;5098083;28;20551;-85
2023/06/08 03:19:06;;;;;;;11.17;6.90;;;;;;;;;;5116289;28;20455;-79
2023/06/08 03:21:32;;;;;;;11.73;5.90;;;;;;;;;;5116376;28;20420;-81
2023/06/08 03:23:58;;;;;;;11.43;6.37;;;;;;;;;;5116172;28;20492;-87
2023/06/08 03:26:24;;;;;;;11.37;6.80;;;;;;;;;;5115809;28;20917;-85
2023/06/08 03:28:52;;;;;;;12.10;7.35;;;;;;;;;;5115318;28;20439;-80
2023/06/08 03:31:20;;;;;;;9.07;6.30;;;;;;;;;;5116065;28;20228;-80
2023/06/08 03:33:47;;;;;;;10.53;5.40;;;;;;;;;;5097716;28;20410;-80
2023/06/08 03:36:13;;;;;;;12.50;8.03;;;;;;;;;;5116044;28;20971;-80
2023/06/08 03:38:39;;;;;;;11.83;7.27;;;;;;;;;;5116041;28;20399;-81
2023/06/08 03:41:05;;;;;;;12.87;7.63;;;;;;;;;;5115524;28;20414;-79
2023/06/08 03:43:31;;;;;;;12.57;7.50;;;;;;;;;;5116147;28;20398;-85
2023/06/08 03:45:57;;;;;;;16.33;7.77;;;;;;;;;;5115807;28;20816;-93
2023/06/08 03:48:25;;;;;;;14.80;8.97;;;;;;;;;;5115958;28;20481;-79
2023/06/08 03:50:51;;;;;;;11.23;7.10;;;;;;;;;;5115634;28;20415;-78
2023/06/08 03:53:17;;;;;;;10.00;5.53;;;;;;;;;;5097680;28;20414;-80
2023/06/08 03:55:43;;;;;;;11.60;7.87;;;;;;;;;;5115469;28;20496;-79
2023/06/08 03:58:12;;;;;;;10.47;7.10;;;;;;;;;;5115900;28;20638;-79
2023/06/08 04:00:38;;;;;;;12.60;8.23;;;;;;;;;;5115277;28;20412;-79
2023/06/08 04:03:04;;;;;;;14.60;9.90;;;;;;;;;;5115293;28;20418;-81
2023/06/08 04:05:30;;;;;;;11.90;8.23;;;;;;;;;;5115366;28;20636;-78
2023/06/08 04:07:58;;;;;;;12.23;7.50;;;;;;;;;;5115351;28;20171;-78
2023/06/08 04:10:23;;;;;;;12.30;7.40;;;;;;;;;;5096708;28;20888;-79
2023/06/08 04:12:49;;;;;;;9.53;6.60;;;;;;;;;;5115192;28;20486;-79
2023/06/08 04:15:15;;;;;;;16.07;8.87;;;;;;;;;;5097263;28;20251;-81
2023/06/08 04:17:43;;;;;;;11.33;8.10;;;;;;;;;;5115506;28;20225;-81
2023/06/08 04:20:11;;;;;;;13.60;7.67;;;;;;;;;;5115515;28;20255;-79
2023/06/08 04:22:37;;;;;;;15.83;7.90;;;;;;;;;;5094992;28;20414;-81
2023/06/08 04:25:03;;;;;;;9.03;7.20;;;;;;;;;;5094705;28;20929;-78
2023/06/08 04:27:29;;;;;;;13.10;8.30;;;;;;;;;;5093438;28;20975;-77
2023/06/08 04:29:57;;;;;;;14.13;7.53;;;;;;;;;;5094277;28;20408;-78
2023/06/08 04:32:23;;;;;;;11.70;8.10;;;;;;;;;;5113473;28;20424;-78
2023/06/08 04:34:49;;;;;;;12.43;8.60;;;;;;;;;;5114610;28;20409;-83
2023/06/08 04:37:15;;;;;;;15.20;9.73;;;;;;;;;;5114494;28;20183;-82
2023/06/08 04:39:41;;;;;;;19.00;11.60;;;;;;;;;;5096382;28;20778;-81
2023/06/08 04:42:08;;;;;;;13.70;7.67;;;;;;;;;;5095617;28;20426;-79
2023/06/08 04:44:34;;;;;;;16.20;8.13;;;;;;;;;;5114079;28;20411;-79
2023/06/08 04:47:00;;;;;;;13.33;9.00;;;;;;;;;;5113876;28;20493;-87
2023/06/08 04:49:31;;;;;;;12.20;8.20;;;;;;;;;;5114198;28;20458;-79
2023/06/08 04:51:58;;;;;;;11.33;8.37;;;;;;;;;;5114270;28;20901;-82
2023/06/08 04:54:24;;;;;;;18.37;10.80;;;;;;;;;;5094166;28;21000;-82
2023/06/08 04:56:53;;;;;;;18.90;10.17;;;;;;;;;;5112803;28;20604;-86
2023/06/08 04:59:19;;;;;;;21.50;10.60;;;;;;;;;;5114355;28;20409;-80
2023/06/08 05:01:45;;;;;;;14.50;9.87;;;;;;;;;;5113782;28;20417;-80
2023/06/08 05:04:11;;;;;;;18.73;10.17;;;;;;;;;;5112841;28;20168;-82
2023/06/08 05:06:37;;;;;;;15.90;9.93;;;;;;;;;;5114140;28;20405;-82
2023/06/08 05:09:03;;;;;;;13.70;9.43;;;;;;;;;;5095890;28;20922;-80
2023/06/08 05:11:29;;;;;;;13.83;9.13;;;;;;;;;;5114928;28;20421;-79
2023/06/08 05:13:55;;;;;;;17.43;10.30;;;;;;;;;;5096499;28;20550;-85
2023/06/08 05:16:21;;;;;;;15.00;8.47;;;;;;;;;;5114097;28;20211;-88
2023/06/08 05:18:46;;;;;;;18.40;10.00;;;;;;;;;;5114502;28;20407;-78
2023/06/08 05:21:12;;;;;;;15.40;10.30;;;;;;;;;;5114312;28;20415;-89
2023/06/08 05:23:39;;;;;;;15.87;9.47;;;;;;;;;;5113884;28;20402;-82
2023/06/08 05:26:05;;;;;;;13.57;9.07;;;;;;;;;;5113600;28;20167;-90
2023/06/08 05:28:31;;;;;;;17.80;11.93;;;;;;;;;;5114087;28;20450;-89
2023/06/08 05:30:57;;;;;;;15.00;9.97;;;;;;;;;;5113947;28;20176;-83
2023/06/08 05:33:23;;;;;;;15.60;10.20;;;;;;;;;;5113704;28;20165;-80
2023/06/08 05:35:49;;;;;;;14.57;8.97;;;;;;;;;;5113507;28;20699;-81
2023/06/08 05:38:15;;;;;;;16.93;12.33;;;;;;;;;;5113707;28;20570;-79
2023/06/08 05:40:44;;;;;;;15.90;10.93;;;;;;;;;;5113201;28;20964;-79
2023/06/08 05:43:10;;;;;;;13.80;9.40;;;;;;;;;;5113606;28;20633;-86
2023/06/08 05:45:39;;;;;;;17.27;10.17;;;;;;;;;;5113397;28;20437;-80
2023/06/08 05:48:05;;;;;;;15.97;11.43;;;;;;;;;;5113328;28;20176;-79
2023/06/08 05:50:31;;;;;;;17.97;10.90;;;;;;;;;;5113556;28;20398;-83
2023/06/08 05:52:58;;;;;;;13.37;9.10;;;;;;;;;;5095161;28;20414;-86
2023/06/08 05:55:24;;;;;;;14.90;10.27;;;;;;;;;;5113247;28;20531;-80
2023/06/08 05:57:50;;;;;;;13.67;10.10;;;;;;;;;;5113303;28;20403;-81
2023/06/08 06:00:17;;;;;;;15.60;10.43;;;;;;;;;;5113361;28;20705;-78
2023/06/08 06:02:42;;;;;;;14.47;9.90;;;;;;;;;;5113416;28;20837;-76
2023/06/08 06:05:09;;;;;;;15.40;9.83;;;;;;;;;;5113219;28;20447;-78
2023/06/08 06:07:35;;;;;;;12.83;8.33;;;;;;;;;;5113441;28;20442;-77
2023/06/08 06:10:01;;;;;;;13.73;11.13;;;;;;;;;;5112894;28;20810;-78
2023/06/08 06:12:27;;;;;;;13.63;10.03;;;;;;;;;;5113328;28;20408;-77
2023/06/08 06:14:55;;;;;;;19.20;11.63;;;;;;;;;;5096384;28;20863;-83
2023/06/08 06:17:21;;;;;;;12.33;9.10;;;;;;;;;;5117540;28;20266;-78
2023/06/08 06:19:50;;;;;;;14.10;9.70;;;;;;;;;;5117185;28;20444;-78
2023/06/08 06:22:16;;;;;;;17.13;10.80;;;;;;;;;;5098559;28;20424;-78
2023/06/08 06:24:42;;;;;;;15.67;10.87;;;;;;;;;;5117108;28;20404;-79
2023/06/08 06:27:08;;;;;;;17.17;11.40;;;;;;;;;;5117137;28;20412;-77
2023/06/08 06:29:34;;;;;;;17.50;10.80;;;;;;;;;;5117170;28;20655;-84
2023/06/08 06:32:00;;;;;;;11.67;9.67;;;;;;;;;;5117389;28;20431;-79
2023/06/08 06:34:26;;;;;;;13.90;10.20;;;;;;;;;;5117072;28;20416;-82
2023/06/08 06:36:52;;;;;;;15.10;10.67;;;;;;;;;;5116891;28;20460;-78
2023/06/08 06:39:19;;;;;;;12.97;8.70;;;;;;;;;;5116894;28;20517;-85
2023/06/08 06:41:51;;;;;;;18.23;9.80;;;;;;;;;;5116953;28;20896;-77
2023/06/08 06:44:17;;;;;;;13.50;10.47;;;;;;;;;;5116833;28;20910;-77
2023/06/08 06:46:43;;;;;;;12.90;8.83;;;;;;;;;;5116997;28;20411;-83
2023/06/08 06:49:09;;;;;;;10.40;8.90;;;;;;;;;;5116469;28;20414;-79
2023/06/08 06:51:40;;;;;;;13.00;10.10;;;;;;;;;;5116431;28;20413;-84
2023/06/08 06:54:06;;;;;;;13.47;8.73;;;;;;;;;;5116149;28;20501;-77
2023/06/08 06:56:32;;;;;;;12.60;9.40;;;;;;;;;;5116272;28;20549;-78
2023/06/08 06:58:58;;;;;;;12.47;9.10;;;;;;;;;;5116146;28;20420;-77
2023/06/08 07:01:24;;;;;;;10.30;8.10;;;;;;;;;;5116172;28;20199;-81
2023/06/08 07:03:50;;;;;;;11.97;8.33;;;;;;;;;;5116861;28;20649;-85
2023/06/08 07:06:24;;;;;;;9.90;8.50;;;;;;;;;;5115849;28;20428;-78
2023/06/08 07:08:58;;;;;;;13.03;9.27;;;;;;;;;;5115509;28;20561;-80
2023/06/08 07:11:24;;;;;;;10.23;8.40;;;;;;;;;;5095607;28;20413;-77
2023/06/08 07:13:51;;;;;;;10.47;9.23;;;;;;;;;;5115817;28;20532;-78
2023/06/08 07:16:17;;;;;;;11.70;10.00;;;;;;;;;;5097837;28;20516;-82
2023/06/08 07:18:43;;;;;;;16.23;10.67;;;;;;;;;;5116318;28;20413;-78
2023/06/08 07:21:08;;;;;;;10.97;9.07;;;;;;;;;;5116134;28;20439;-80
2023/06/08 07:23:34;;;;;;;13.03;9.77;;;;;;;;;;5115836;28;20175;-77
2023/06/08 07:26:00;;;;;;;12.70;8.90;;;;;;;;;;5115254;28;20168;-79
2023/06/08 07:28:26;;;;;;;13.63;8.70;;;;;;;;;;5115929;28;20743;-77
2023/06/08 07:30:52;;;;;;;13.73;9.67;;;;;;;;;;5097444;28;20409;-78
2023/06/08 07:33:18;;;;;;;8.87;7.90;;;;;;;;;;5115512;28;20225;-78
2023/06/08 07:35:44;;;;;;;11.63;10.03;;;;;;;;;;5115682;28;20287;-78
2023/06/08 07:38:10;;;;;;;10.30;7.93;;;;;;;;;;5116028;28;20163;-84
2023/06/08 07:40:36;;;;;;;10.20;8.53;;;;;;;;;;5115589;28;20172;-80
2023/06/08 07:43:02;;;;;;;12.60;9.60;;;;;;;;;;5115755;28;20466;-78
2023/06/08 07:45:28;;;;;;;11.87;9.27;;;;;;;;;;5115478;28;20624;-78
2023/06/08 07:47:54;;;;;;;12.90;8.17;;;;;;;;;;5115717;28;20182;-77
2023/06/08 07:50:20;;;;;;;10.40;8.80;;;;;;;;;;5115466;28;20176;-85
2023/06/08 07:52:46;;;;;;;11.47;9.40;;;;;;;;;;5115572;28;20171;-78
2023/06/08 07:55:12;;;;;;;11.70;8.93;;;;;;;;;;5115031;28;20718;-77
2023/06/08 07:57:38;;;;;;;14.83;10.53;;;;;;;;;;5115324;28;20228;-80
2023/06/08 08:00:05;;;;;;;10.33;9.03;;;;;;;;;;5115382;28;20410;-78
2023/06/08 08:02:31;;;;;;;16.43;9.13;;;;;;;;;;5115583;28;20182;-79
2023/06/08 08:04:57;;;;;;;15.83;8.27;;;;;;;;;;5115185;28;20847;-81
2023/06/08 08:07:23;;;;;;;10.40;8.23;;;;;;;;;;5115159;28;20409;-77
2023/06/08 08:09:49;;;;;;;12.30;9.27;;;;;;;;;;5114716;28;20671;-77
2023/06/08 08:12:15;;;;;;;11.60;9.00;;;;;;;;;;5114980;28;20175;-77
2023/06/08 08:14:41;;;;;;;10.40;8.90;;;;;;;;;;5114979;28;20215;-77
2023/06/08 08:17:07;;;;;;;15.00;9.30;;;;;;;;;;5114960;28;20214;-78
2023/06/08 08:19:33;;;;;;;10.30;8.70;;;;;;;;;;5114832;28;20402;-84
2023/06/08 08:21:59;;;;;;;9.00;8.00;;;;;;;;;;5115049;28;20167;-79
2023/06/08 08:24:25;;;;;;;10.63;9.30;;;;;;;;;;5114582;28;20201;-79
2023/06/08 08:26:55;;;;;;;11.70;8.43;;;;;;;;;;5114688;28;20500;-81
2023/06/08 08:29:21;;;;;;;10.10;8.00;;;;;;;;;;5114846;28;20413;-82
2023/06/08 08:31:46;;;;;;;10.83;9.77;;;;;;;;;;5111201;28;20409;-81
2023/06/08 08:34:12;;;;;;;13.47;9.07;;;;;;;;;;5094388;28;20184;-81
2023/06/08 08:36:39;;;;;;;10.70;8.47;;;;;;;;;;5076167;28;20211;-77
2023/06/08 08:39:05;;;;;;;10.20;7.97;;;;;;;;;;5074757;28;20283;-76
2023/06/08 08:41:33;;;;;;;10.70;8.37;;;;;;;;;;5094037;28;20415;-81
2023/06/08 08:44:03;;;;;;;10.70;8.90;;;;;;;;;;5094210;28;20430;-77
2023/06/08 08:46:38;;;;;;;12.37;7.97;;;;;;;;;;5094145;28;20436;-80
2023/06/08 08:49:08;;;;;;;11.30;8.70;;;;;;;;;;5075974;28;20414;-77
2023/06/08 08:51:38;;;;;;;8.67;7.80;;;;;;;;;;5094174;28;20418;-82
2023/06/08 08:54:04;;;;;;;8.23;7.33;;;;;;;;;;5093706;28;20430;-77
2023/06/08 08:56:37;;;;;;;8.30;7.33;;;;;;;;;;5096519;28;20542;-79
2023/06/08 08:59:04;;;;;;;10.00;6.90;;;;;;;;;;5111753;28;20413;-81
2023/06/08 09:01:32;;;;;;;11.17;7.60;;;;;;;;;;5114168;28;20748;-78
2023/06/08 09:03:58;;;;;;;9.53;7.90;;;;;;;;;;5113954;28;20443;-78
2023/06/08 09:06:24;;;;;;;11.37;8.07;;;;;;;;;;5113756;28;20417;-81
2023/06/08 09:08:51;;;;;;;11.00;8.03;;;;;;;;;;5113818;28;20489;-80
2023/06/08 09:11:21;;;;;;;7.13;6.03;;;;;;;;;;5113680;28;20187;-79
2023/06/08 09:13:46;;;;;;;8.33;6.77;;;;;;;;;;5113724;28;20461;-77
2023/06/08 09:16:14;;;;;;;7.80;7.07;;;;;;;;;;5113616;28;20559;-77
2023/06/08 09:18:41;;;;;;;10.07;7.10;;;;;;;;;;5095114;28;20203;-77
2023/06/08 09:21:23;;;;;;;10.57;6.27;;;;;;;;;;5113691;28;20435;-77
2023/06/08 09:24:12;;;;;;;8.43;7.53;;;;;;;;;;5113411;28;20425;-77
2023/06/08 09:26:48;;;;;;;8.40;7.50;;;;;;;;;;5102792;28;20436;-79
2023/06/08 09:29:38;;;;;;;7.97;6.20;;;;;;;;;;5113825;28;20413;-78
2023/06/08 09:32:04;;;;;;;8.60;7.60;;;;;;;;;;5113867;28;20480;-86
2023/06/08 09:34:33;;;;;;;7.07;6.37;;;;;;;;;;5113927;28;20401;-81
2023/06/08 09:37:08;;;;;;;8.83;7.93;;;;;;;;;;5094808;28;20572;-78
2023/06/08 09:39:41;;;;;;;11.83;8.70;;;;;;;;;;5112951;28;20428;-79
2023/06/08 09:42:08;;;;;;;8.70;6.83;;;;;;;;;;5092761;28;20806;-79
2023/06/08 09:44:37;;;;;;;7.97;7.17;;;;;;;;;;5113142;28;20767;-79
2023/06/08 09:47:30;;;;;;;8.77;7.23;;;;;;;;;;5112907;28;20421;-78
2023/06/08 09:49:56;;;;;;;8.03;6.80;;;;;;;;;;5109469;28;20797;-79
2023/06/08 09:52:23;;;;;;;9.73;6.73;;;;;;;;;;5113385;28;20398;-80
2023/06/08 09:54:49;;;;;;;9.97;7.30;;;;;;;;;;5112819;28;20914;-79
2023/06/08 09:57:15;;;;;;;7.57;6.83;;;;;;;;;;5113157;28;20473;-79
2023/06/08 09:59:45;;;;;;;8.60;5.97;;;;;;;;;;5113118;28;20408;-78
2023/06/08 10:02:22;;;;;;;8.90;7.20;;;;;;;;;;5113136;28;20885;-78
2023/06/08 10:04:55;;;;;;;8.87;6.87;;;;;;;;;;5113443;28;20424;-80
2023/06/08 10:07:25;;;;;;;9.70;7.10;;;;;;;;;;5113200;28;20417;-78
2023/06/08 10:09:53;;;;;;;7.30;6.50;;;;;;;;;;5112908;28;20405;-78
2023/06/08 10:12:19;;;;;;;8.70;6.80;;;;;;;;;;5113168;28;20413;-78
2023/06/08 10:14:45;;;;;;;7.50;6.80;;;;;;;;;;5113080;28;20445;-78
2023/06/08 10:17:11;;;;;;;8.53;7.10;;;;;;;;;;5113148;28;20500;-79
2023/06/08 10:19:37;;;;;;;13.73;7.73;;;;;;;;;;5113089;28;20576;-78
2023/06/08 10:22:04;;;;;;;10.00;5.40;;;;;;;;;;5113072;28;20417;-78
2023/06/08 10:24:30;;;;;;;10.63;6.90;;;;;;;;;;5112827;28;20172;-79
2023/06/08 10:27:10;;;;;;;7.97;7.07;;;;;;;;;;5113253;28;20408;-79
2023/06/08 10:29:36;;;;;;;10.90;5.93;;;;;;;;;;5113162;28;20405;-79
2023/06/08 10:32:05;;;;;;;6.67;5.57;;;;;;;;;;5113041;28;20897;-79
2023/06/08 10:34:38;;;;;;;8.93;6.03;;;;;;;;;;5113150;28;20448;-79
2023/06/08 10:37:04;;;;;;;5.93;5.30;;;;;;;;;;5113112;28;20467;-79
2023/06/08 10:39:45;;;;;;;6.30;5.70;;;;;;;;;;5112746;28;20404;-79
2023/06/08 10:42:17;;;;;;;8.17;5.40;;;;;;;;;;5113093;28;20428;-79
2023/06/08 10:44:43;;;;;;;7.80;5.83;;;;;;;;;;5094806;28;20758;-79
2023/06/08 10:47:09;;;;;;;11.70;6.80;;;;;;;;;;5112839;28;20413;-79
2023/06/08 10:49:36;;;;;;;8.03;6.40;;;;;;;;;;5112946;28;20220;-79
2023/06/08 10:52:03;;;;;;;6.63;5.90;;;;;;;;;;5112755;28;20405;-79
2023/06/08 10:54:30;;;;;;;7.83;6.17;;;;;;;;;;5112519;28;20410;-79
2023/06/08 10:56:58;;;;;;;5.33;4.83;;;;;;;;;;5112723;28;20468;-78
2023/06/08 10:59:36;;;;;;;5.50;5.00;;;;;;;;;;5112869;28;20416;-79
2023/06/08 11:02:06;;;;;;;6.30;5.20;;;;;;;;;;5114548;28;20916;-80
2023/06/08 11:04:32;;;;;;;5.93;3.93;;;;;;;;;;5098475;28;20410;-79
2023/06/08 11:07:02;;;;;;;5.77;4.77;;;;;;;;;;5116518;28;20405;-79
2023/06/08 11:09:30;;;;;;;5.90;4.53;;;;;;;;;;5116026;28;20501;-80
2023/06/08 11:11:55;;;;;;;6.40;4.83;;;;;;;;;;5116515;28;20415;-79
2023/06/08 11:14:22;;;;;;;8.03;5.50;;;;;;;;;;5115931;28;20522;-78
2023/06/08 11:16:51;;;;;;;6.33;4.90;;;;;;;;;;5115829;28;20210;-80
2023/06/08 11:19:18;;;;;;;5.67;4.53;;;;;;;;;;5097939;28;20462;-81
2023/06/08 11:21:44;;;;;;;6.40;4.47;;;;;;;;;;5116216;28;20815;-79
2023/06/08 11:24:10;;;;;;;4.53;4.10;;;;;;;;;;5115839;28;20764;-80
2023/06/08 11:26:36;;;;;;;5.30;4.80;;;;;;;;;;5116219;28;20414;-79
2023/06/08 11:29:03;;;;;;;7.33;4.67;;;;;;;;;;5116127;28;20643;-79
2023/06/08 11:31:38;;;;;;;6.60;4.87;;;;;;;;;;5116066;28;20470;-79
2023/06/08 11:34:04;;;;;;;4.83;4.13;;;;;;;;;;5115958;28;20405;-81
2023/06/08 11:36:30;;;;;;;5.77;5.27;;;;;;;;;;5115888;28;20461;-80
2023/06/08 11:38:56;;;;;;;6.93;4.80;;;;;;;;;;5115628;28;20172;-81
2023/06/08 11:41:22;;;;;;;6.07;5.47;;;;;;;;;;5115822;28;20918;-80
2023/06/08 11:43:49;;;;;;;5.43;4.80;;;;;;;;;;5115749;28;20242;-81
2023/06/08 11:46:18;;;;;;;7.63;4.30;;;;;;;;;;5115202;28;20409;-79
2023/06/08 11:48:47;;;;;;;4.80;4.20;;;;;;;;;;5115779;28;20576;-79
2023/06/08 11:51:17;;;;;;;9.53;5.03;;;;;;;;;;5115712;28;20410;-80
2023/06/08 11:53:45;;;;;;;4.73;4.33;;;;;;;;;;5115103;28;20492;-80
2023/06/08 11:56:11;;;;;;;5.53;5.03;;;;;;;;;;5107660;27;20491;-84
2023/06/08 11:58:39;;;;;;;5.50;4.97;;;;;;;;;;5095575;28;20763;-88
2023/06/08 12:01:11;;;;;;;5.70;5.10;;;;;;;;;;5094814;28;20509;-87
2023/06/08 12:03:47;;;;;;;4.70;4.30;;;;;;;;;;5094351;28;20407;-81
2023/06/08 12:06:14;;;;;;;5.10;4.60;;;;;;;;;;5092884;28;20437;-81
2023/06/08 12:08:41;;;;;;;5.33;4.33;;;;;;;;;;5094119;28;20422;-85
2023/06/08 12:11:08;;;;;;;6.33;5.73;;;;;;;;;;5094564;28;20913;-87
2023/06/08 12:13:34;;;;;;;6.77;5.10;;;;;;;;;;5093874;28;20480;-84
2023/06/08 12:16:01;;;;;;;6.70;4.63;;;;;;;;;;5093972;28;20489;-83
2023/06/08 12:18:26;;;;;;;5.33;4.83;;;;;;;;;;5094199;28;20502;-80
2023/06/08 12:20:53;;;;;;;5.13;4.53;;;;;;;;;;5094513;28;20407;-79
2023/06/08 12:23:20;;;;;;;6.20;4.30;;;;;;;;;;5094052;28;20207;-80
2023/06/08 12:25:46;;;;;;;4.47;3.50;;;;;;;;;;5094406;28;20813;-81
2023/06/08 12:28:23;;;;;;;4.63;4.17;;;;;;;;;;5094235;28;20411;-80
2023/06/08 12:30:49;;;;;;;6.40;4.33;;;;;;;;;;5094683;28;20628;-80
2023/06/08 12:33:17;;;;;;;6.10;5.00;;;;;;;;;;5094244;28;20402;-80
2023/06/08 12:35:44;;;;;;;5.63;4.50;;;;;;;;;;5094036;28;20200;-80
2023/06/08 12:38:10;;;;;;;4.87;4.43;;;;;;;;;;5093646;28;20448;-80
2023/06/08 12:40:36;;;;;;;4.23;3.83;;;;;;;;;;5093991;28;20426;-80
2023/06/08 12:43:02;;;;;;;5.60;4.33;;;;;;;;;;5093924;28;20578;-79
2023/06/08 12:45:28;;;;;;;5.53;3.40;;;;;;;;;;5120199;27;20427;-81
2023/06/08 12:47:54;;;;;;;5.37;4.20;;;;;;;;;;5134841;27;20761;-79
2023/06/08 12:50:22;;;;;;;6.27;4.20;;;;;;;;;;5134643;27;20167;-80
2023/06/08 12:52:48;;;;;;;5.60;3.87;;;;;;;;;;5134236;27;20545;-79
2023/06/08 12:55:18;;;;;;;3.83;3.43;;;;;;;;;;5134538;27;20415;-81
2023/06/08 12:57:51;;;;;;;5.97;4.60;;;;;;;;;;5134581;27;20829;-79
2023/06/08 13:00:21;;;;;;;5.03;4.63;;;;;;;;;;5134589;27;20396;-79
2023/06/08 13:02:47;;;;;;;4.67;3.87;;;;;;;;;;5134488;27;20900;-79
2023/06/08 13:05:13;;;;;;;4.47;3.73;;;;;;;;;;5134493;27;20763;-79
2023/06/08 13:07:39;;;;;;;4.47;3.60;;;;;;;;;;5134115;27;20403;-80
2023/06/08 13:10:05;;;;;;;4.50;4.10;;;;;;;;;;5134333;27;20641;-80
2023/06/08 13:12:31;;;;;;;4.47;3.73;;;;;;;;;;5134182;27;21027;-82
2023/06/08 13:14:57;;;;;;;4.07;3.70;;;;;;;;;;5134199;27;20468;-80
2023/06/08 13:17:24;;;;;;;4.17;3.30;;;;;;;;;;5134244;27;20512;-87
2023/06/08 13:19:51;;;;;;;5.93;3.77;;;;;;;;;;5134319;27;20175;-83
2023/06/08 13:22:19;;;;;;;3.87;3.53;;;;;;;;;;5134193;27;20424;-81
2023/06/08 13:24:45;;;;;;;3.83;3.43;;;;;;;;;;5133251;27;20400;-81
2023/06/08 13:27:11;;;;;;;4.50;3.30;;;;;;;;;;5133799;27;20473;-84
2023/06/08 13:29:39;;;;;;;4.37;3.60;;;;;;;;;;5118304;27;20420;-82
2023/06/08 13:32:05;;;;;;;4.10;3.80;;;;;;;;;;5095150;28;20176;-82
2023/06/08 13:34:31;;;;;;;3.70;3.40;;;;;;;;;;5095826;28;20417;-82
2023/06/08 13:37:01;;;;;;;3.70;3.33;;;;;;;;;;5118159;28;20501;-85
2023/06/08 13:39:27;;;;;;;3.67;3.27;;;;;;;;;;5095786;28;20531;-82
2023/06/08 13:41:53;;;;;;;4.33;3.03;;;;;;;;;;5095693;28;20429;-82
2023/06/08 13:44:19;;;;;;;7.43;3.63;;;;;;;;;;5113333;27;20413;-82
2023/06/08 13:46:45;;;;;;;3.80;3.43;;;;;;;;;;5113495;28;20939;-83
2023/06/08 13:49:14;;;;;;;4.27;3.53;;;;;;;;;;5113243;28;20409;-82
2023/06/08 13:51:43;;;;;;;4.40;2.90;;;;;;;;;;5113256;28;20254;-82
2023/06/08 13:54:10;;;;;;;4.23;3.33;;;;;;;;;;5112757;28;20409;-82
2023/06/08 13:56:36;;;;;;;4.20;3.30;;;;;;;;;;5112991;28;21025;-82
2023/06/08 13:59:03;;;;;;;4.13;3.50;;;;;;;;;;5112969;28;20409;-88
2023/06/08 14:01:29;;;;;;;4.87;3.43;;;;;;;;;;5113882;28;20171;-92
2023/06/08 14:03:56;;;;;;;5.20;3.67;;;;;;;;;;5113536;28;20410;-82
2023/06/08 14:06:22;;;;;;;4.33;3.60;;;;;;;;;;5092088;28;20449;-81
2023/06/08 14:08:48;;;;;;;5.10;3.43;;;;;;;;;;5110330;28;20412;-82
2023/06/08 14:11:17;;;;;;;5.93;3.53;;;;;;;;;;5134105;28;20174;-81
2023/06/08 14:13:43;;;;;;;5.93;3.97;;;;;;;;;;5114829;28;20478;-82
2023/06/08 14:16:10;;;;;;;5.20;2.57;;;;;;;;;;5133843;28;20536;-82
2023/06/08 14:18:36;;;;;;;5.03;2.70;;;;;;;;;;5133300;28;20513;-82
2023/06/08 14:21:02;;;;;;;4.77;3.70;;;;;;;;;;5133795;28;20925;-82
2023/06/08 14:23:28;;;;;;;5.03;3.40;;;;;;;;;;5133061;28;20405;-82
2023/06/08 14:25:54;;;;;;;7.40;4.20;;;;;;;;;;5133913;28;20178;-81
2023/06/08 14:28:20;;;;;;;3.50;3.20;;;;;;;;;;5133664;28;20195;-82
2023/06/08 14:30:46;;;;;;;4.33;3.27;;;;;;;;;;5115338;28;20445;-82
2023/06/08 14:33:12;;;;;;;4.10;3.70;;;;;;;;;;5115307;28;20265;-81
2023/06/08 14:35:38;;;;;;;5.97;3.90;;;;;;;;;;5132379;27;20199;-89
2023/06/08 14:38:05;;;;;;;3.90;3.60;;;;;;;;;;5136679;27;20512;-82